sensor_id;sensor_type;location;lat;lon;timestamp;P1;durP1;ratioP1;P2;durP2;ratioP2
12986;SDS011;58897;51.960;5.582;2024-01-30T00:01:53;6.93;;;5.50;;
12986;SDS011;58897;51.960;5.582;2024-01-30T00:04:20;9.52;;;5.15;;
12986;SDS011;58897;51.960;5.582;2024-01-30T00:06:47;8.65;;;4.85;;
12986;SDS011;58897;51.960;5.582;2024-01-30T00:09:13;8.95;;;5.78;;
12986;SDS011;58897;51.960;5.582;2024-01-30T00:11:40;8.05;;;5.15;;
12986;SDS011;58897;51.960;5.582;2024-01-30T00:14:06;8.52;;;4.97;;
12986;SDS011;58897;51.960;5.582;2024-01-30T00:16:33;8.30;;;5.13;;
12986;SDS011;58897;51.960;5.582;2024-01-30T00:19:00;7.85;;;6.00;;
12986;SDS011;58897;51.960;5.582;2024-01-30T00:21:28;6.88;;;5.22;;
12986;SDS011;58897;51.960;5.582;2024-01-30T00:23:55;9.80;;;5.70;;
12986;SDS011;58897;51.960;5.582;2024-01-30T00:26:21;9.80;;;6.25;;
12986;SDS011;58897;51.960;5.582;2024-01-30T00:28:48;11.35;;;6.25;;
12986;SDS011;58897;51.960;5.582;2024-01-30T00:31:14;12.40;;;7.15;;
12986;SDS011;58897;51.960;5.582;2024-01-30T00:33:41;7.30;;;4.50;;
12986;SDS011;58897;51.960;5.582;2024-01-30T00:36:09;12.68;;;6.50;;
12986;SDS011;58897;51.960;5.582;2024-01-30T00:38:37;14.20;;;5.65;;
12986;SDS011;58897;51.960;5.582;2024-01-30T00:41:04;9.10;;;5.32;;
12986;SDS011;58897;51.960;5.582;2024-01-30T00:43:30;7.20;;;4.65;;
12986;SDS011;58897;51.960;5.582;2024-01-30T00:45:58;7.22;;;6.25;;
12986;SDS011;58897;51.960;5.582;2024-01-30T00:48:25;9.00;;;5.50;;
12986;SDS011;58897;51.960;5.582;2024-01-30T00:50:52;10.98;;;5.50;;
12986;SDS011;58897;51.960;5.582;2024-01-30T00:53:19;8.88;;;5.30;;
12986;SDS011;58897;51.960;5.582;2024-01-30T00:55:45;5.97;;;3.85;;
12986;SDS011;58897;51.960;5.582;2024-01-30T00:58:12;7.82;;;4.25;;
12986;SDS011;58897;51.960;5.582;2024-01-30T01:00:39;7.45;;;5.22;;
12986;SDS011;58897;51.960;5.582;2024-01-30T01:03:05;5.75;;;3.28;;
12986;SDS011;58897;51.960;5.582;2024-01-30T01:05:32;5.80;;;3.95;;
12986;SDS011;58897;51.960;5.582;2024-01-30T01:07:59;9.13;;;4.85;;
12986;SDS011;58897;51.960;5.582;2024-01-30T01:10:25;6.88;;;4.22;;
12986;SDS011;58897;51.960;5.582;2024-01-30T01:12:53;10.02;;;4.85;;
12986;SDS011;58897;51.960;5.582;2024-01-30T01:15:20;5.78;;;4.20;;
12986;SDS011;58897;51.960;5.582;2024-01-30T01:17:47;5.30;;;3.10;;
12986;SDS011;58897;51.960;5.582;2024-01-30T01:20:13;8.27;;;4.85;;
12986;SDS011;58897;51.960;5.582;2024-01-30T01:22:40;7.22;;;4.10;;
12986;SDS011;58897;51.960;5.582;2024-01-30T01:25:08;10.52;;;4.50;;
12986;SDS011;58897;51.960;5.582;2024-01-30T01:27:36;10.10;;;5.60;;
12986;SDS011;58897;51.960;5.582;2024-01-30T01:30:11;7.50;;;4.47;;
12986;SDS011;58897;51.960;5.582;2024-01-30T01:32:40;7.90;;;4.85;;
12986;SDS011;58897;51.960;5.582;2024-01-30T01:35:15;7.45;;;4.32;;
12986;SDS011;58897;51.960;5.582;2024-01-30T01:37:42;7.65;;;4.75;;
12986;SDS011;58897;51.960;5.582;2024-01-30T01:40:09;7.35;;;4.55;;
12986;SDS011;58897;51.960;5.582;2024-01-30T01:42:36;6.15;;;4.20;;
12986;SDS011;58897;51.960;5.582;2024-01-30T01:45:02;7.82;;;5.22;;
12986;SDS011;58897;51.960;5.582;2024-01-30T01:47:29;8.05;;;4.75;;
12986;SDS011;58897;51.960;5.582;2024-01-30T01:49:56;10.38;;;5.28;;
12986;SDS011;58897;51.960;5.582;2024-01-30T01:52:23;8.55;;;3.33;;
12986;SDS011;58897;51.960;5.582;2024-01-30T01:54:50;7.70;;;4.70;;
12986;SDS011;58897;51.960;5.582;2024-01-30T01:57:17;6.22;;;3.45;;
12986;SDS011;58897;51.960;5.582;2024-01-30T01:59:44;5.32;;;3.47;;
12986;SDS011;58897;51.960;5.582;2024-01-30T02:02:11;8.05;;;4.43;;
12986;SDS011;58897;51.960;5.582;2024-01-30T02:04:42;7.00;;;4.53;;
12986;SDS011;58897;51.960;5.582;2024-01-30T02:07:09;9.95;;;5.10;;
12986;SDS011;58897;51.960;5.582;2024-01-30T02:09:36;5.38;;;2.80;;
12986;SDS011;58897;51.960;5.582;2024-01-30T02:12:03;10.95;;;5.07;;
12986;SDS011;58897;51.960;5.582;2024-01-30T02:14:30;8.23;;;4.15;;
12986;SDS011;58897;51.960;5.582;2024-01-30T02:16:56;7.30;;;4.35;;
12986;SDS011;58897;51.960;5.582;2024-01-30T02:19:23;12.52;;;5.05;;
12986;SDS011;58897;51.960;5.582;2024-01-30T02:21:50;12.23;;;5.40;;
12986;SDS011;58897;51.960;5.582;2024-01-30T02:24:18;8.38;;;4.38;;
12986;SDS011;58897;51.960;5.582;2024-01-30T02:26:45;7.25;;;4.50;;
12986;SDS011;58897;51.960;5.582;2024-01-30T02:29:12;9.32;;;5.03;;
12986;SDS011;58897;51.960;5.582;2024-01-30T02:31:38;6.78;;;5.03;;
12986;SDS011;58897;51.960;5.582;2024-01-30T02:34:05;5.97;;;3.50;;
12986;SDS011;58897;51.960;5.582;2024-01-30T02:36:32;8.95;;;4.63;;
12986;SDS011;58897;51.960;5.582;2024-01-30T02:38:59;7.45;;;4.82;;
12986;SDS011;58897;51.960;5.582;2024-01-30T02:41:25;8.60;;;5.55;;
12986;SDS011;58897;51.960;5.582;2024-01-30T02:43:52;9.05;;;5.32;;
12986;SDS011;58897;51.960;5.582;2024-01-30T02:46:19;8.95;;;5.72;;
12986;SDS011;58897;51.960;5.582;2024-01-30T02:48:45;7.25;;;3.38;;
12986;SDS011;58897;51.960;5.582;2024-01-30T02:51:12;10.75;;;5.28;;
12986;SDS011;58897;51.960;5.582;2024-01-30T02:53:39;8.05;;;5.00;;
12986;SDS011;58897;51.960;5.582;2024-01-30T02:56:06;7.70;;;4.38;;
12986;SDS011;58897;51.960;5.582;2024-01-30T02:58:36;7.20;;;5.15;;
12986;SDS011;58897;51.960;5.582;2024-01-30T03:01:03;5.93;;;3.95;;
12986;SDS011;58897;51.960;5.582;2024-01-30T03:03:30;7.75;;;4.85;;
12986;SDS011;58897;51.960;5.582;2024-01-30T03:05:56;8.57;;;5.05;;
12986;SDS011;58897;51.960;5.582;2024-01-30T03:08:23;8.15;;;3.90;;
12986;SDS011;58897;51.960;5.582;2024-01-30T03:10:50;8.07;;;4.72;;
12986;SDS011;58897;51.960;5.582;2024-01-30T03:13:17;7.57;;;4.65;;
12986;SDS011;58897;51.960;5.582;2024-01-30T03:15:44;6.70;;;4.22;;
12986;SDS011;58897;51.960;5.582;2024-01-30T03:18:10;9.57;;;5.53;;
12986;SDS011;58897;51.960;5.582;2024-01-30T03:20:37;9.38;;;5.20;;
12986;SDS011;58897;51.960;5.582;2024-01-30T03:23:05;9.88;;;5.43;;
12986;SDS011;58897;51.960;5.582;2024-01-30T03:25:33;10.43;;;5.00;;
12986;SDS011;58897;51.960;5.582;2024-01-30T03:28:00;7.13;;;4.72;;
12986;SDS011;58897;51.960;5.582;2024-01-30T03:30:27;11.90;;;5.00;;
12986;SDS011;58897;51.960;5.582;2024-01-30T03:32:54;9.05;;;4.63;;
12986;SDS011;58897;51.960;5.582;2024-01-30T03:35:21;9.73;;;5.25;;
12986;SDS011;58897;51.960;5.582;2024-01-30T03:37:47;7.38;;;2.90;;
12986;SDS011;58897;51.960;5.582;2024-01-30T03:40:14;10.35;;;4.40;;
12986;SDS011;58897;51.960;5.582;2024-01-30T03:42:41;7.97;;;4.28;;
12986;SDS011;58897;51.960;5.582;2024-01-30T03:45:08;7.28;;;4.75;;
12986;SDS011;58897;51.960;5.582;2024-01-30T03:47:35;7.38;;;4.88;;
12986;SDS011;58897;51.960;5.582;2024-01-30T03:50:01;7.95;;;4.22;;
12986;SDS011;58897;51.960;5.582;2024-01-30T03:52:29;6.88;;;4.57;;
12986;SDS011;58897;51.960;5.582;2024-01-30T03:54:55;7.93;;;4.78;;
12986;SDS011;58897;51.960;5.582;2024-01-30T03:57:22;14.75;;;5.20;;
12986;SDS011;58897;51.960;5.582;2024-01-30T03:59:49;7.30;;;3.60;;
12986;SDS011;58897;51.960;5.582;2024-01-30T04:02:15;6.53;;;3.80;;
12986;SDS011;58897;51.960;5.582;2024-01-30T04:04:44;9.60;;;4.65;;
12986;SDS011;58897;51.960;5.582;2024-01-30T04:07:11;7.47;;;4.57;;
12986;SDS011;58897;51.960;5.582;2024-01-30T04:09:38;7.80;;;4.40;;
12986;SDS011;58897;51.960;5.582;2024-01-30T04:12:05;7.60;;;4.88;;
12986;SDS011;58897;51.960;5.582;2024-01-30T04:14:32;12.48;;;5.13;;
12986;SDS011;58897;51.960;5.582;2024-01-30T04:16:59;8.20;;;5.10;;
12986;SDS011;58897;51.960;5.582;2024-01-30T04:19:25;8.18;;;5.13;;
12986;SDS011;58897;51.960;5.582;2024-01-30T04:21:52;7.63;;;4.10;;
12986;SDS011;58897;51.960;5.582;2024-01-30T04:24:19;8.88;;;4.25;;
12986;SDS011;58897;51.960;5.582;2024-01-30T04:26:45;10.15;;;5.18;;
12986;SDS011;58897;51.960;5.582;2024-01-30T04:29:12;11.88;;;5.68;;
12986;SDS011;58897;51.960;5.582;2024-01-30T04:31:39;9.77;;;4.80;;
12986;SDS011;58897;51.960;5.582;2024-01-30T04:34:05;8.07;;;4.95;;
12986;SDS011;58897;51.960;5.582;2024-01-30T04:36:32;8.45;;;4.78;;
12986;SDS011;58897;51.960;5.582;2024-01-30T04:39:01;8.82;;;4.45;;
12986;SDS011;58897;51.960;5.582;2024-01-30T04:41:27;7.03;;;4.85;;
12986;SDS011;58897;51.960;5.582;2024-01-30T04:43:57;6.47;;;4.45;;
12986;SDS011;58897;51.960;5.582;2024-01-30T04:46:24;7.70;;;4.35;;
12986;SDS011;58897;51.960;5.582;2024-01-30T04:48:51;6.78;;;3.97;;
12986;SDS011;58897;51.960;5.582;2024-01-30T04:51:17;7.72;;;3.88;;
12986;SDS011;58897;51.960;5.582;2024-01-30T04:53:44;9.32;;;4.70;;
12986;SDS011;58897;51.960;5.582;2024-01-30T04:56:11;12.15;;;5.15;;
12986;SDS011;58897;51.960;5.582;2024-01-30T04:58:38;8.75;;;5.07;;
12986;SDS011;58897;51.960;5.582;2024-01-30T05:01:04;9.82;;;4.82;;
12986;SDS011;58897;51.960;5.582;2024-01-30T05:03:32;6.95;;;4.13;;
12986;SDS011;58897;51.960;5.582;2024-01-30T05:06:00;7.35;;;4.10;;
12986;SDS011;58897;51.960;5.582;2024-01-30T05:08:27;8.65;;;4.80;;
12986;SDS011;58897;51.960;5.582;2024-01-30T05:10:55;5.53;;;3.63;;
12986;SDS011;58897;51.960;5.582;2024-01-30T05:13:21;5.57;;;4.32;;
12986;SDS011;58897;51.960;5.582;2024-01-30T05:15:48;11.40;;;5.38;;
12986;SDS011;58897;51.960;5.582;2024-01-30T05:18:15;8.95;;;5.78;;
12986;SDS011;58897;51.960;5.582;2024-01-30T05:20:41;9.45;;;5.50;;
12986;SDS011;58897;51.960;5.582;2024-01-30T05:23:08;8.00;;;5.15;;
12986;SDS011;58897;51.960;5.582;2024-01-30T05:25:35;8.65;;;4.82;;
12986;SDS011;58897;51.960;5.582;2024-01-30T05:28:02;8.55;;;4.80;;
12986;SDS011;58897;51.960;5.582;2024-01-30T05:30:29;6.25;;;3.58;;
12986;SDS011;58897;51.960;5.582;2024-01-30T05:32:55;9.90;;;4.45;;
12986;SDS011;58897;51.960;5.582;2024-01-30T05:35:22;6.90;;;4.50;;
12986;SDS011;58897;51.960;5.582;2024-01-30T05:37:49;8.77;;;4.85;;
12986;SDS011;58897;51.960;5.582;2024-01-30T05:40:16;8.23;;;4.80;;
12986;SDS011;58897;51.960;5.582;2024-01-30T05:42:43;9.88;;;5.30;;
12986;SDS011;58897;51.960;5.582;2024-01-30T05:45:10;5.70;;;3.90;;
12986;SDS011;58897;51.960;5.582;2024-01-30T05:47:36;7.00;;;3.83;;
12986;SDS011;58897;51.960;5.582;2024-01-30T05:50:03;8.23;;;4.78;;
12986;SDS011;58897;51.960;5.582;2024-01-30T05:52:30;8.27;;;4.53;;
12986;SDS011;58897;51.960;5.582;2024-01-30T05:54:56;7.95;;;4.20;;
12986;SDS011;58897;51.960;5.582;2024-01-30T05:57:23;6.40;;;4.15;;
12986;SDS011;58897;51.960;5.582;2024-01-30T05:59:49;7.60;;;3.72;;
12986;SDS011;58897;51.960;5.582;2024-01-30T06:02:18;6.97;;;4.65;;
12986;SDS011;58897;51.960;5.582;2024-01-30T06:04:45;7.18;;;4.03;;
12986;SDS011;58897;51.960;5.582;2024-01-30T06:07:12;8.45;;;4.20;;
12986;SDS011;58897;51.960;5.582;2024-01-30T06:09:38;5.32;;;3.70;;
12986;SDS011;58897;51.960;5.582;2024-01-30T06:12:05;8.18;;;4.35;;
12986;SDS011;58897;51.960;5.582;2024-01-30T06:14:36;7.78;;;4.18;;
12986;SDS011;58897;51.960;5.582;2024-01-30T06:17:03;10.45;;;4.70;;
12986;SDS011;58897;51.960;5.582;2024-01-30T06:19:34;7.13;;;4.80;;
12986;SDS011;58897;51.960;5.582;2024-01-30T06:22:02;5.90;;;4.07;;
12986;SDS011;58897;51.960;5.582;2024-01-30T06:24:28;9.55;;;5.47;;
12986;SDS011;58897;51.960;5.582;2024-01-30T06:26:55;6.78;;;3.90;;
12986;SDS011;58897;51.960;5.582;2024-01-30T06:29:22;5.82;;;4.40;;
12986;SDS011;58897;51.960;5.582;2024-01-30T06:31:50;9.35;;;4.65;;
12986;SDS011;58897;51.960;5.582;2024-01-30T06:34:18;8.57;;;5.00;;
12986;SDS011;58897;51.960;5.582;2024-01-30T06:36:45;9.70;;;4.88;;
12986;SDS011;58897;51.960;5.582;2024-01-30T06:39:12;11.02;;;5.07;;
12986;SDS011;58897;51.960;5.582;2024-01-30T06:41:39;8.30;;;4.18;;
12986;SDS011;58897;51.960;5.582;2024-01-30T06:44:05;7.20;;;3.85;;
12986;SDS011;58897;51.960;5.582;2024-01-30T06:46:35;8.30;;;3.92;;
12986;SDS011;58897;51.960;5.582;2024-01-30T06:49:02;6.75;;;4.15;;
12986;SDS011;58897;51.960;5.582;2024-01-30T06:51:28;7.25;;;3.78;;
12986;SDS011;58897;51.960;5.582;2024-01-30T06:53:55;6.93;;;4.45;;
12986;SDS011;58897;51.960;5.582;2024-01-30T06:56:25;7.10;;;4.35;;
12986;SDS011;58897;51.960;5.582;2024-01-30T06:58:52;8.80;;;5.40;;
12986;SDS011;58897;51.960;5.582;2024-01-30T07:01:18;9.32;;;5.10;;
12986;SDS011;58897;51.960;5.582;2024-01-30T07:03:45;5.13;;;3.88;;
12986;SDS011;58897;51.960;5.582;2024-01-30T07:06:13;9.98;;;4.10;;
12986;SDS011;58897;51.960;5.582;2024-01-30T07:08:40;9.30;;;4.25;;
12986;SDS011;58897;51.960;5.582;2024-01-30T07:11:06;9.30;;;4.97;;
12986;SDS011;58897;51.960;5.582;2024-01-30T07:13:34;7.70;;;4.63;;
12986;SDS011;58897;51.960;5.582;2024-01-30T07:16:01;7.47;;;4.00;;
12986;SDS011;58897;51.960;5.582;2024-01-30T07:18:28;6.03;;;3.97;;
12986;SDS011;58897;51.960;5.582;2024-01-30T07:20:55;7.13;;;3.92;;
12986;SDS011;58897;51.960;5.582;2024-01-30T07:23:22;9.75;;;4.47;;
12986;SDS011;58897;51.960;5.582;2024-01-30T07:25:49;7.25;;;4.22;;
12986;SDS011;58897;51.960;5.582;2024-01-30T07:28:19;9.23;;;4.28;;
12986;SDS011;58897;51.960;5.582;2024-01-30T07:30:49;7.70;;;4.28;;
12986;SDS011;58897;51.960;5.582;2024-01-30T07:33:17;12.52;;;5.28;;
12986;SDS011;58897;51.960;5.582;2024-01-30T07:35:45;6.57;;;3.97;;
12986;SDS011;58897;51.960;5.582;2024-01-30T07:38:13;6.95;;;4.35;;
12986;SDS011;58897;51.960;5.582;2024-01-30T07:40:40;11.95;;;4.90;;
12986;SDS011;58897;51.960;5.582;2024-01-30T07:43:08;9.23;;;4.90;;
12986;SDS011;58897;51.960;5.582;2024-01-30T07:45:37;8.00;;;3.90;;
12986;SDS011;58897;51.960;5.582;2024-01-30T07:48:11;5.10;;;3.60;;
12986;SDS011;58897;51.960;5.582;2024-01-30T07:50:37;8.45;;;4.55;;
12986;SDS011;58897;51.960;5.582;2024-01-30T07:53:04;9.50;;;4.72;;
12986;SDS011;58897;51.960;5.582;2024-01-30T07:55:34;12.02;;;4.75;;
12986;SDS011;58897;51.960;5.582;2024-01-30T07:58:02;8.27;;;5.18;;
12986;SDS011;58897;51.960;5.582;2024-01-30T08:00:31;7.57;;;4.60;;
12986;SDS011;58897;51.960;5.582;2024-01-30T08:02:58;11.90;;;5.25;;
12986;SDS011;58897;51.960;5.582;2024-01-30T08:05:29;6.57;;;3.47;;
12986;SDS011;58897;51.960;5.582;2024-01-30T08:07:56;7.78;;;3.60;;
12986;SDS011;58897;51.960;5.582;2024-01-30T08:10:23;7.78;;;4.07;;
12986;SDS011;58897;51.960;5.582;2024-01-30T08:12:51;8.48;;;5.38;;
12986;SDS011;58897;51.960;5.582;2024-01-30T08:15:18;7.53;;;3.10;;
12986;SDS011;58897;51.960;5.582;2024-01-30T08:17:48;6.55;;;3.97;;
12986;SDS011;58897;51.960;5.582;2024-01-30T08:20:15;10.75;;;4.65;;
12986;SDS011;58897;51.960;5.582;2024-01-30T08:22:43;4.68;;;3.50;;
12986;SDS011;58897;51.960;5.582;2024-01-30T08:25:14;6.40;;;3.20;;
12986;SDS011;58897;51.960;5.582;2024-01-30T08:27:42;7.55;;;4.53;;
12986;SDS011;58897;51.960;5.582;2024-01-30T08:30:08;11.45;;;5.65;;
12986;SDS011;58897;51.960;5.582;2024-01-30T08:32:35;7.72;;;4.03;;
12986;SDS011;58897;51.960;5.582;2024-01-30T08:35:10;10.88;;;4.90;;
12986;SDS011;58897;51.960;5.582;2024-01-30T08:37:40;8.20;;;3.67;;
12986;SDS011;58897;51.960;5.582;2024-01-30T08:40:07;12.38;;;4.32;;
12986;SDS011;58897;51.960;5.582;2024-01-30T08:42:39;11.80;;;4.25;;
12986;SDS011;58897;51.960;5.582;2024-01-30T08:45:06;12.13;;;4.80;;
12986;SDS011;58897;51.960;5.582;2024-01-30T08:47:35;6.72;;;4.70;;
12986;SDS011;58897;51.960;5.582;2024-01-30T08:50:05;16.05;;;5.53;;
12986;SDS011;58897;51.960;5.582;2024-01-30T08:52:38;12.23;;;5.00;;
12986;SDS011;58897;51.960;5.582;2024-01-30T08:55:11;17.80;;;5.57;;
12986;SDS011;58897;51.960;5.582;2024-01-30T08:57:38;10.15;;;5.28;;
12986;SDS011;58897;51.960;5.582;2024-01-30T09:00:05;7.72;;;4.18;;
12986;SDS011;58897;51.960;5.582;2024-01-30T09:02:35;7.45;;;4.28;;
12986;SDS011;58897;51.960;5.582;2024-01-30T09:05:07;10.43;;;4.72;;
12986;SDS011;58897;51.960;5.582;2024-01-30T09:07:35;7.47;;;4.13;;
12986;SDS011;58897;51.960;5.582;2024-01-30T09:10:02;10.45;;;4.53;;
12986;SDS011;58897;51.960;5.582;2024-01-30T09:12:34;5.32;;;3.88;;
12986;SDS011;58897;51.960;5.582;2024-01-30T09:15:01;8.20;;;5.22;;
12986;SDS011;58897;51.960;5.582;2024-01-30T09:17:28;7.80;;;4.25;;
12986;SDS011;58897;51.960;5.582;2024-01-30T09:19:56;7.50;;;4.68;;
12986;SDS011;58897;51.960;5.582;2024-01-30T09:22:26;11.80;;;4.95;;
12986;SDS011;58897;51.960;5.582;2024-01-30T09:24:54;9.13;;;5.05;;
12986;SDS011;58897;51.960;5.582;2024-01-30T09:27:21;7.95;;;4.38;;
12986;SDS011;58897;51.960;5.582;2024-01-30T09:29:49;7.38;;;4.93;;
12986;SDS011;58897;51.960;5.582;2024-01-30T09:32:16;10.77;;;4.70;;
12986;SDS011;58897;51.960;5.582;2024-01-30T09:34:44;7.40;;;3.88;;
12986;SDS011;58897;51.960;5.582;2024-01-30T09:37:12;8.63;;;5.15;;
12986;SDS011;58897;51.960;5.582;2024-01-30T09:39:42;11.00;;;5.20;;
12986;SDS011;58897;51.960;5.582;2024-01-30T09:44:53;8.52;;;4.57;;
12986;SDS011;58897;51.960;5.582;2024-01-30T09:47:21;12.52;;;5.75;;
12986;SDS011;58897;51.960;5.582;2024-01-30T09:49:52;8.90;;;4.35;;
12986;SDS011;58897;51.960;5.582;2024-01-30T09:52:21;6.10;;;4.03;;
12986;SDS011;58897;51.960;5.582;2024-01-30T09:54:48;10.27;;;4.93;;
12986;SDS011;58897;51.960;5.582;2024-01-30T09:59:47;9.88;;;4.75;;
12986;SDS011;58897;51.960;5.582;2024-01-30T10:02:15;6.38;;;3.55;;
12986;SDS011;58897;51.960;5.582;2024-01-30T10:04:44;8.90;;;4.28;;
12986;SDS011;58897;51.960;5.582;2024-01-30T10:07:15;10.80;;;5.35;;
12986;SDS011;58897;51.960;5.582;2024-01-30T10:09:43;9.35;;;5.10;;
12986;SDS011;58897;51.960;5.582;2024-01-30T10:12:10;8.93;;;5.38;;
12986;SDS011;58897;51.960;5.582;2024-01-30T10:14:41;13.88;;;5.75;;
12986;SDS011;58897;51.960;5.582;2024-01-30T10:17:10;7.68;;;4.78;;
12986;SDS011;58897;51.960;5.582;2024-01-30T10:19:52;8.23;;;4.82;;
12986;SDS011;58897;51.960;5.582;2024-01-30T10:22:20;11.40;;;5.80;;
12986;SDS011;58897;51.960;5.582;2024-01-30T10:24:48;7.65;;;3.92;;
12986;SDS011;58897;51.960;5.582;2024-01-30T10:27:25;6.53;;;4.43;;
12986;SDS011;58897;51.960;5.582;2024-01-30T10:29:53;7.65;;;4.00;;
12986;SDS011;58897;51.960;5.582;2024-01-30T10:32:27;9.98;;;4.93;;
12986;SDS011;58897;51.960;5.582;2024-01-30T10:35:01;8.73;;;4.53;;
12986;SDS011;58897;51.960;5.582;2024-01-30T10:37:29;11.55;;;4.82;;
12986;SDS011;58897;51.960;5.582;2024-01-30T10:40:03;12.15;;;5.72;;
12986;SDS011;58897;51.960;5.582;2024-01-30T10:42:37;7.90;;;4.55;;
12986;SDS011;58897;51.960;5.582;2024-01-30T10:45:09;12.52;;;5.20;;
12986;SDS011;58897;51.960;5.582;2024-01-30T10:47:52;7.95;;;3.60;;
12986;SDS011;58897;51.960;5.582;2024-01-30T10:50:21;7.85;;;4.03;;
12986;SDS011;58897;51.960;5.582;2024-01-30T10:52:51;7.95;;;5.07;;
12986;SDS011;58897;51.960;5.582;2024-01-30T10:55:19;12.02;;;5.57;;
12986;SDS011;58897;51.960;5.582;2024-01-30T10:57:48;10.13;;;5.88;;
12986;SDS011;58897;51.960;5.582;2024-01-30T11:00:15;10.65;;;4.95;;
12986;SDS011;58897;51.960;5.582;2024-01-30T11:02:43;9.38;;;4.40;;
12986;SDS011;58897;51.960;5.582;2024-01-30T11:05:11;10.00;;;5.30;;
12986;SDS011;58897;51.960;5.582;2024-01-30T11:07:39;14.38;;;5.78;;
12986;SDS011;58897;51.960;5.582;2024-01-30T11:10:11;10.27;;;6.03;;
12986;SDS011;58897;51.960;5.582;2024-01-30T11:15:12;12.02;;;4.47;;
12986;SDS011;58897;51.960;5.582;2024-01-30T11:18:02;12.55;;;5.20;;
12986;SDS011;58897;51.960;5.582;2024-01-30T11:20:29;5.95;;;4.03;;
12986;SDS011;58897;51.960;5.582;2024-01-30T11:23:03;7.55;;;3.85;;
12986;SDS011;58897;51.960;5.582;2024-01-30T11:25:33;9.20;;;5.20;;
12986;SDS011;58897;51.960;5.582;2024-01-30T11:28:04;8.13;;;4.80;;
12986;SDS011;58897;51.960;5.582;2024-01-30T11:30:40;8.77;;;5.43;;
12986;SDS011;58897;51.960;5.582;2024-01-30T11:33:11;9.43;;;6.25;;
12986;SDS011;58897;51.960;5.582;2024-01-30T11:35:43;12.27;;;5.72;;
12986;SDS011;58897;51.960;5.582;2024-01-30T11:38:15;9.63;;;5.43;;
12986;SDS011;58897;51.960;5.582;2024-01-30T11:40:43;7.68;;;4.82;;
12986;SDS011;58897;51.960;5.582;2024-01-30T11:43:10;9.85;;;5.55;;
12986;SDS011;58897;51.960;5.582;2024-01-30T11:45:38;10.38;;;5.57;;
12986;SDS011;58897;51.960;5.582;2024-01-30T11:48:08;8.73;;;5.28;;
12986;SDS011;58897;51.960;5.582;2024-01-30T11:50:39;16.00;;;6.10;;
12986;SDS011;58897;51.960;5.582;2024-01-30T11:53:08;12.23;;;5.53;;
12986;SDS011;58897;51.960;5.582;2024-01-30T11:55:35;6.15;;;3.85;;
12986;SDS011;58897;51.960;5.582;2024-01-30T12:01:03;5.75;;;3.17;;
12986;SDS011;58897;51.960;5.582;2024-01-30T12:03:30;7.35;;;3.70;;
12986;SDS011;58897;51.960;5.582;2024-01-30T12:05:57;5.45;;;3.15;;
12986;SDS011;58897;51.960;5.582;2024-01-30T12:08:27;4.10;;;2.90;;
12986;SDS011;58897;51.960;5.582;2024-01-30T12:10:56;6.47;;;3.15;;
12986;SDS011;58897;51.960;5.582;2024-01-30T12:13:25;7.30;;;3.22;;
12986;SDS011;58897;51.960;5.582;2024-01-30T12:15:57;7.45;;;2.65;;
12986;SDS011;58897;51.960;5.582;2024-01-30T12:18:25;5.53;;;2.70;;
12986;SDS011;58897;51.960;5.582;2024-01-30T12:21:01;7.43;;;2.53;;
12986;SDS011;58897;51.960;5.582;2024-01-30T12:23:28;5.13;;;2.97;;
12986;SDS011;58897;51.960;5.582;2024-01-30T12:25:58;6.93;;;2.88;;
12986;SDS011;58897;51.960;5.582;2024-01-30T12:28:35;4.00;;;2.22;;
12986;SDS011;58897;51.960;5.582;2024-01-30T12:31:05;3.75;;;1.45;;
12986;SDS011;58897;51.960;5.582;2024-01-30T12:33:32;7.13;;;2.05;;
12986;SDS011;58897;51.960;5.582;2024-01-30T12:36:02;2.75;;;1.60;;
12986;SDS011;58897;51.960;5.582;2024-01-30T12:38:31;6.03;;;2.13;;
12986;SDS011;58897;51.960;5.582;2024-01-30T12:40:58;3.55;;;1.60;;
12986;SDS011;58897;51.960;5.582;2024-01-30T12:43:25;4.28;;;1.30;;
12986;SDS011;58897;51.960;5.582;2024-01-30T12:46:03;2.85;;;0.93;;
12986;SDS011;58897;51.960;5.582;2024-01-30T12:48:31;4.10;;;2.15;;
12986;SDS011;58897;51.960;5.582;2024-01-30T12:50:58;3.63;;;2.05;;
12986;SDS011;58897;51.960;5.582;2024-01-30T12:53:25;4.50;;;2.00;;
12986;SDS011;58897;51.960;5.582;2024-01-30T12:55:52;5.72;;;2.03;;
12986;SDS011;58897;51.960;5.582;2024-01-30T12:58:20;3.28;;;1.70;;
12986;SDS011;58897;51.960;5.582;2024-01-30T13:00:48;2.15;;;1.42;;
12986;SDS011;58897;51.960;5.582;2024-01-30T13:03:15;2.20;;;1.08;;
12986;SDS011;58897;51.960;5.582;2024-01-30T13:05:43;3.78;;;1.85;;
12986;SDS011;58897;51.960;5.582;2024-01-30T13:08:10;2.47;;;1.33;;
12986;SDS011;58897;51.960;5.582;2024-01-30T13:10:37;3.03;;;1.40;;
12986;SDS011;58897;51.960;5.582;2024-01-30T13:13:05;4.40;;;2.25;;
12986;SDS011;58897;51.960;5.582;2024-01-30T13:15:39;4.30;;;2.30;;
12986;SDS011;58897;51.960;5.582;2024-01-30T13:18:06;6.15;;;2.70;;
12986;SDS011;58897;51.960;5.582;2024-01-30T13:20:33;3.55;;;2.08;;
12986;SDS011;58897;51.960;5.582;2024-01-30T13:23:05;3.65;;;2.00;;
12986;SDS011;58897;51.960;5.582;2024-01-30T13:25:32;6.45;;;2.50;;
12986;SDS011;58897;51.960;5.582;2024-01-30T13:27:59;4.35;;;2.53;;
12986;SDS011;58897;51.960;5.582;2024-01-30T13:30:27;4.55;;;2.47;;
12986;SDS011;58897;51.960;5.582;2024-01-30T13:32:55;4.43;;;2.10;;
12986;SDS011;58897;51.960;5.582;2024-01-30T13:35:22;5.95;;;2.38;;
12986;SDS011;58897;51.960;5.582;2024-01-30T13:37:49;3.95;;;2.60;;
12986;SDS011;58897;51.960;5.582;2024-01-30T13:40:16;4.55;;;2.42;;
12986;SDS011;58897;51.960;5.582;2024-01-30T13:42:43;4.82;;;2.88;;
12986;SDS011;58897;51.960;5.582;2024-01-30T13:45:10;4.97;;;2.45;;
12986;SDS011;58897;51.960;5.582;2024-01-30T13:47:37;6.38;;;2.60;;
12986;SDS011;58897;51.960;5.582;2024-01-30T13:50:05;5.05;;;2.50;;
12986;SDS011;58897;51.960;5.582;2024-01-30T13:52:33;6.63;;;2.83;;
12986;SDS011;58897;51.960;5.582;2024-01-30T13:55:09;5.88;;;1.98;;
12986;SDS011;58897;51.960;5.582;2024-01-30T13:57:37;5.75;;;2.63;;
12986;SDS011;58897;51.960;5.582;2024-01-30T14:00:05;5.63;;;2.05;;
12986;SDS011;58897;51.960;5.582;2024-01-30T14:02:38;3.50;;;2.75;;
12986;SDS011;58897;51.960;5.582;2024-01-30T14:05:05;3.92;;;2.10;;
12986;SDS011;58897;51.960;5.582;2024-01-30T14:07:33;4.18;;;1.90;;
12986;SDS011;58897;51.960;5.582;2024-01-30T14:10:00;2.95;;;1.48;;
12986;SDS011;58897;51.960;5.582;2024-01-30T14:12:30;4.25;;;2.13;;
12986;SDS011;58897;51.960;5.582;2024-01-30T14:14:57;3.95;;;2.08;;
12986;SDS011;58897;51.960;5.582;2024-01-30T14:17:24;3.20;;;1.92;;
12986;SDS011;58897;51.960;5.582;2024-01-30T14:19:51;5.78;;;2.25;;
12986;SDS011;58897;51.960;5.582;2024-01-30T14:22:18;5.72;;;2.45;;
12986;SDS011;58897;51.960;5.582;2024-01-30T14:24:45;3.50;;;2.03;;
12986;SDS011;58897;51.960;5.582;2024-01-30T14:27:12;3.97;;;2.53;;
12986;SDS011;58897;51.960;5.582;2024-01-30T14:29:41;7.72;;;3.47;;
12986;SDS011;58897;51.960;5.582;2024-01-30T14:32:09;6.53;;;2.78;;
12986;SDS011;58897;51.960;5.582;2024-01-30T14:34:36;3.28;;;1.88;;
12986;SDS011;58897;51.960;5.582;2024-01-30T14:37:03;6.43;;;2.75;;
12986;SDS011;58897;51.960;5.582;2024-01-30T14:39:30;5.35;;;2.50;;
12986;SDS011;58897;51.960;5.582;2024-01-30T14:41:57;4.18;;;2.25;;
12986;SDS011;58897;51.960;5.582;2024-01-30T14:44:24;4.80;;;3.03;;
12986;SDS011;58897;51.960;5.582;2024-01-30T14:46:51;8.10;;;3.40;;
12986;SDS011;58897;51.960;5.582;2024-01-30T14:49:18;3.83;;;2.22;;
12986;SDS011;58897;51.960;5.582;2024-01-30T14:51:45;3.67;;;2.05;;
12986;SDS011;58897;51.960;5.582;2024-01-30T14:54:11;5.57;;;2.20;;
12986;SDS011;58897;51.960;5.582;2024-01-30T14:56:39;3.40;;;1.52;;
12986;SDS011;58897;51.960;5.582;2024-01-30T14:59:06;1.70;;;1.25;;
12986;SDS011;58897;51.960;5.582;2024-01-30T15:01:33;6.53;;;2.47;;